Tillson, New York
Current Conditions -  °F | °C
As of 2:53 PM on Thursday 23 Oct 2014 (Local Time) from KPOU Reporting Station
Overcast Overcast  
Wind Chill: 50°   Ceiling: 1500
Heat Index: 50°   Visibility: 10mi
Dew Point: 45°   Wind: 13mph
Humidity: 83%   Direction: 360°N
Pressure: 29.74"   Gusts: 26mph
Location:  41.83°N, 74.07°W
Report Text: KPOU 231853Z 36011G23KT 10SM OVC015 10/07 A2974 RMK AO2 SLP068 T01000072
Loading
Personal Weather Stations






























Interactive Weather Map
Tropical Storm Tracking
New forecast layout! Learn more

10-Day Weather Forecast

Advertisements
Track Severe Weather on mobile